Atlanta, GA

5:07 PM EST on February 27, 2015 (GMT -0500)
Dobbins Air Force Base | Change Station
CLOSE
Current Station
Airport
Location: Marietta,
Elevation: 1070 ft
Nearby Weather Stations

Elev 1070 ft 33.92 °N, 84.52 °W | Updated 9 minutes ago

Clear
Clear
44 °F
Feels Like 39 °F
N
8
Wind Variable Wind from NW

Today
High -- | Low -- °F
--% Chance of Precip.
Yesterday
High -- | Low -- °F
Precip. -- in
7:08 AM 6:32 PM
Waxing Gibbous, 72% visible
Pressure 30.39 in
Visibility 10.0 miles
Clouds Few 25000 ft
Windchill 39 °F
Dew Point 19 °F
Humidity 38%
Rainfall 0.00 in
Snow Depth Not available.
UV 1 out of 12
Pollen 6.90 out of 12
Air Quality Not available.
Flu Activity Not available.
METAR KMGE 272158Z 32007KT 10SM FEW250 07/M07 A3036 RMK AO2A SLP290 T00651070 $

More Conditions Fewer Conditions

Pressure 30.39 in
Visibility 10.0 miles
Clouds Few 25000 ft
Windchill 39 °F
Dew Point 19 °F
Humidity 38%
Rainfall 0.00 in
Snow Depth Not available.
UV 1 out of 12
Pollen 6.90 out of 12
Air Quality Not available.
Flu Activity Not available.
METAR KMGE 272158Z 32007KT 10SM FEW250 07/M07 A3036 RMK AO2A SLP290 T00651070 $

More Conditions Fewer Conditions

10-Day Weather Forecast

Almanac

Astronomy

Feb. 27, 2015 Rise Set
Actual Time
Civil Twilight
Nautical Twilight
Astronomical Twilight
Moon
Length of Visible Light
Length of Day
Tomorrow will be .
, % of the Moon is Illuminated

Today's Extremes

State Highs State Lows

Community

WunderPhotos

Upload Photos

1,800,848 photos uploaded!

WunderBlogs® & News

Nearby

Air Quality

  Air Quality AQ Index Pollutant
Not available.

Snow Depth

Station Depth Elevation

Earthquake Activity

City Distance Mag. Time & Date
Minimum magnitude displayed is 2.5.

Coastal Water Temperatures

Place Temperature

Nearby Weather Stations